Terminal Aerodrome Forecast
Issued by NWS

Home | Current Version | Previous Version | Text Only | Print | Product List | Glossary On
Versions: 1 2 3 4 5 6 7 8 9 10 11 12 13 14 15 16 17 18 19 20 21 22 23 24 25 26 27 28 29 30 31 32 33
873
FTUS41 KCAR 131852 AAA
TAFFVE
TAF AMD
KFVE 131852Z 1319/1418 25010KT 1SM -SHSN OVC004
     FM132100 26013G23KT 3SM -SHSN OVC004
     FM132200 26014G25KT 5SM -SHSN OVC008
     FM140100 26014G24KT P6SM VCSH OVC015
     FM140400 28017G28KT P6SM VCSH OVC022
     FM140600 27017G29KT P6SM OVC035=

USA.gov is the U.S. government's official web portal to all federal, state and local government web resources and services.